createdAt,value
2019-01-18T00:01:54.952Z,3.2
2019-01-18T00:17:08.055Z,3
2019-01-18T00:32:20.102Z,3
2019-01-18T00:47:29.066Z,3.1
2019-01-18T01:02:42.005Z,3.2
2019-01-18T01:17:53.576Z,3.2
2019-01-18T01:33:05.255Z,3.1
2019-01-18T01:48:18.471Z,3.1
2019-01-18T02:03:28.341Z,3
2019-01-18T02:18:40.291Z,2.8
2019-01-18T02:33:53.285Z,2.8
2019-01-18T02:49:02.809Z,2.7
2019-01-18T03:04:17.255Z,2.7
2019-01-18T03:19:27.524Z,2.6
2019-01-18T03:34:37.330Z,2.6
2019-01-18T03:49:46.872Z,2.4
2019-01-18T04:04:59.747Z,2.4
2019-01-18T04:20:14.048Z,2.4
2019-01-18T04:35:24.095Z,2.5
2019-01-18T04:50:36.220Z,2.5
2019-01-18T05:05:47.079Z,2.2
2019-01-18T05:20:57.670Z,1.8
2019-01-18T05:36:06.944Z,1.6
2019-01-18T05:51:21.451Z,1.3
2019-01-18T06:06:31.273Z,1.1
2019-01-18T06:21:42.715Z,1.1
2019-01-18T06:36:52.251Z,1.1
2019-01-18T06:52:02.770Z,1.1
2019-01-18T07:07:11.686Z,1.1
2019-01-18T07:22:24.250Z,1.1
2019-01-18T07:37:36.100Z,1
2019-01-18T07:52:45.641Z,1.1
2019-01-18T08:07:55.935Z,1
2019-01-18T08:23:07.051Z,1
2019-01-18T08:38:22.070Z,0.9
2019-01-18T08:54:29.915Z,0.9
2019-01-18T09:09:56.835Z,0.8
2019-01-18T09:25:21.873Z,0.7
2019-01-18T09:40:48.245Z,0.7
2019-01-18T09:56:08.573Z,0.6
2019-01-18T10:11:14.322Z,0.7
2019-01-18T10:26:30.983Z,0.8
2019-01-18T10:41:36.355Z,0.8
2019-01-18T10:56:48.761Z,1.3
2019-01-18T11:12:05.276Z,1.1
2019-01-18T11:27:38.592Z,1
2019-01-18T11:43:07.105Z,1
2019-01-18T11:58:25.473Z,1.5
2019-01-18T12:13:40.237Z,1.7
2019-01-18T12:28:52.373Z,1.3
2019-01-18T12:44:06.154Z,1.3
2019-01-18T12:59:20.211Z,1.4
2019-01-18T13:14:35.914Z,1.5
2019-01-18T13:29:58.487Z,3.3
2019-01-18T13:45:26.444Z,3.6
2019-01-18T14:00:48.279Z,3.3
2019-01-18T14:16:13.772Z,3.5
2019-01-18T14:31:31.722Z,4.2
2019-01-18T14:46:42.862Z,3.4
2019-01-18T15:01:53.412Z,3.4
2019-01-18T15:17:07.498Z,3
2019-01-18T15:32:19.124Z,2.1
2019-01-18T15:47:28.701Z,1.4
2019-01-18T16:02:43.623Z,1.1
2019-01-18T16:18:35.185Z,1.1
2019-01-18T16:33:58.570Z,0.9
2019-01-18T16:49:12.151Z,0.7
2019-01-18T17:04:21.009Z,0.5
2019-01-18T17:19:33.001Z,0.3
2019-01-18T17:34:45.131Z,0.4
2019-01-18T17:50:07.380Z,0.1
2019-01-18T18:05:31.140Z,0
2019-01-18T18:20:57.758Z,1.7
2019-01-18T18:36:20.683Z,0.8
2019-01-18T18:51:32.652Z,0.1
2019-01-18T19:06:41.182Z,0
2019-01-18T19:21:55.623Z,-0.1
2019-01-18T19:37:03.376Z,-0.1
2019-01-18T19:52:15.450Z,0
2019-01-18T20:07:27.186Z,0
2019-01-18T20:22:38.247Z,0
2019-01-18T20:38:36.100Z,0
2019-01-18T20:53:46.758Z,0
2019-01-18T21:08:57.260Z,0.1
2019-01-18T21:24:07.803Z,0
2019-01-18T21:39:18.428Z,0.1
2019-01-18T21:54:28.919Z,0
2019-01-18T22:09:39.558Z,0.1
2019-01-18T22:24:50.003Z,0.1
2019-01-18T22:40:00.619Z,0.1
2019-01-18T22:55:10.554Z,-0.1
2019-01-18T23:10:21.474Z,-0.3
2019-01-18T23:25:31.901Z,-0.5
2019-01-18T23:40:42.277Z,-0.6
2019-01-18T23:55:50.002Z,-0.7
